Time;durP1;ratioP1;P1;durP2;ratioP2;P2;SDS_P1;SDS_P2;PMS_P1;PMS_P2;Temp;Humidity;BMP_temperature;BMP_pressure;BME280_temperature;BME280_humidity;BME280_pressure;Samples;Min_cycle;Max_cycle;Signal;HPM_P1;HPM_P2
2023/12/20 00:02:02;;;;;;;10.32;2.03;;;7.80;99.90;;;;;;5002824;28;20144;-59
2023/12/20 00:04:28;;;;;;;8.82;2.20;;;7.70;99.90;;;;;;5004383;28;20503;-60
2023/12/20 00:06:54;;;;;;;11.98;2.10;;;7.70;99.90;;;;;;5002586;28;20041;-60
2023/12/20 00:09:19;;;;;;;6.55;1.77;;;7.70;99.90;;;;;;5005685;28;20422;-60
2023/12/20 00:11:46;;;;;;;10.93;2.20;;;7.70;99.90;;;;;;5003562;28;20049;-59
2023/12/20 00:14:11;;;;;;;10.60;2.38;;;7.70;99.90;;;;;;4986679;28;20132;-60
2023/12/20 00:16:37;;;;;;;12.73;2.17;;;7.70;99.90;;;;;;4989683;28;20184;-60
2023/12/20 00:19:03;;;;;;;8.75;1.77;;;7.70;99.90;;;;;;5003354;28;20041;-60
2023/12/20 00:21:28;;;;;;;8.93;1.92;;;7.60;99.90;;;;;;4985874;28;20037;-60
2023/12/20 00:23:54;;;;;;;11.25;2.08;;;7.70;99.90;;;;;;5003994;28;20129;-60
2023/12/20 00:26:20;;;;;;;10.07;2.25;;;7.60;99.90;;;;;;5002143;28;20038;-59
2023/12/20 00:28:46;;;;;;;14.10;2.45;;;7.50;99.90;;;;;;4998862;28;20403;-60
2023/12/20 00:31:11;;;;;;;14.23;2.47;;;7.50;99.90;;;;;;4986415;28;20103;-60
2023/12/20 00:33:37;;;;;;;15.68;2.42;;;7.50;99.90;;;;;;5006573;28;20050;-59
2023/12/20 00:36:03;;;;;;;16.98;2.65;;;7.50;99.90;;;;;;5000107;28;20041;-60
2023/12/20 00:38:29;;;;;;;18.85;3.33;;;7.50;99.90;;;;;;4969684;28;20046;-60
2023/12/20 00:40:54;;;;;;;19.35;2.90;;;7.50;99.90;;;;;;5002907;28;20041;-60
2023/12/20 00:43:23;;;;;;;18.60;3.17;;;7.60;99.90;;;;;;5001245;28;20080;-60
2023/12/20 00:45:49;;;;;;;16.45;2.92;;;7.60;99.90;;;;;;4990850;28;20076;-60
2023/12/20 00:48:15;;;;;;;19.58;3.20;;;7.60;99.90;;;;;;5000949;28;20526;-60
2023/12/20 00:50:40;;;;;;;23.17;3.78;;;7.60;99.90;;;;;;5002041;28;20273;-60
2023/12/20 00:53:06;;;;;;;17.90;4.45;;;7.60;99.90;;;;;;4989134;28;20125;-60
2023/12/20 00:55:32;;;;;;;22.40;3.45;;;7.60;99.90;;;;;;5002712;28;20479;-60
2023/12/20 00:57:59;;;;;;;18.45;4.05;;;7.60;99.90;;;;;;4977957;28;20052;-59
2023/12/20 01:00:25;;;;;;;18.52;4.55;;;7.60;99.90;;;;;;5002642;28;20128;-60
2023/12/20 01:02:51;;;;;;;26.30;5.80;;;7.60;99.90;;;;;;5005065;28;20093;-60
2023/12/20 01:05:19;;;;;;;28.20;4.20;;;7.60;99.90;;;;;;5005388;28;20042;-60
2023/12/20 01:07:44;;;;;;;32.38;4.85;;;7.60;99.90;;;;;;5002294;28;20050;-60
2023/12/20 01:10:10;;;;;;;21.77;6.15;;;7.70;99.90;;;;;;4987962;28;20073;-60
2023/12/20 01:12:36;;;;;;;22.55;3.88;;;7.70;99.90;;;;;;4987646;28;20393;-59
2023/12/20 01:15:02;;;;;;;16.67;3.47;;;7.70;99.90;;;;;;4998963;28;20517;-60
2023/12/20 01:17:28;;;;;;;24.25;3.97;;;7.70;99.90;;;;;;4987269;28;20120;-60
2023/12/20 01:19:54;;;;;;;26.13;3.60;;;7.70;99.90;;;;;;5003391;28;21756;-60
2023/12/20 01:22:20;;;;;;;28.02;4.15;;;7.70;99.90;;;;;;4987804;28;20049;-60
2023/12/20 01:24:45;;;;;;;31.70;6.28;;;7.70;99.90;;;;;;5002951;28;20045;-60
2023/12/20 01:27:11;;;;;;;27.92;4.50;;;7.80;99.90;;;;;;4964054;28;20050;-60
2023/12/20 01:29:37;;;;;;;28.23;4.00;;;7.80;99.90;;;;;;4969599;28;20065;-60
2023/12/20 01:32:02;;;;;;;22.67;3.85;;;7.80;99.90;;;;;;5000727;28;20034;-60
2023/12/20 01:34:28;;;;;;;21.95;4.47;;;7.80;99.90;;;;;;5003412;28;20272;-60
2023/12/20 01:36:54;;;;;;;25.85;4.25;;;7.70;99.90;;;;;;5006527;28;20116;-60
2023/12/20 01:39:20;;;;;;;25.00;4.10;;;7.80;99.90;;;;;;4987756;28;20045;-60
2023/12/20 01:41:45;;;;;;;23.23;5.00;;;7.70;99.90;;;;;;5005130;28;20045;-60
2023/12/20 01:44:14;;;;;;;28.75;4.22;;;7.80;99.90;;;;;;4989135;28;20495;-60
2023/12/20 01:46:40;;;;;;;31.92;4.53;;;7.80;99.90;;;;;;4986064;28;20049;-60
2023/12/20 01:49:05;;;;;;;22.70;4.45;;;7.90;99.90;;;;;;5004754;28;20052;-60
2023/12/20 01:51:33;;;;;;;22.23;4.22;;;7.90;99.90;;;;;;5001970;28;20103;-60
2023/12/20 01:54:04;;;;;;;34.13;6.70;;;8.00;99.90;;;;;;5004965;28;20537;-60
2023/12/20 01:56:31;;;;;;;29.00;5.10;;;8.00;99.90;;;;;;4981162;28;20030;-60
2023/12/20 01:58:58;;;;;;;27.48;4.10;;;8.10;99.90;;;;;;4986863;28;20091;-60
2023/12/20 02:01:28;;;;;;;22.55;4.25;;;8.00;99.90;;;;;;4980104;28;20046;-60
2023/12/20 02:03:54;;;;;;;24.35;5.05;;;8.10;99.90;;;;;;4987256;28;20062;-60
2023/12/20 02:06:23;;;;;;;23.02;3.90;;;8.10;99.90;;;;;;4985008;28;20038;-60
2023/12/20 02:08:50;;;;;;;37.25;5.20;;;8.10;99.90;;;;;;5012872;28;20050;-61
2023/12/20 02:11:16;;;;;;;27.45;4.88;;;8.10;99.90;;;;;;5001303;28;20552;-60
2023/12/20 02:13:42;;;;;;;22.00;3.85;;;8.20;99.90;;;;;;5006363;28;20053;-60
2023/12/20 02:16:08;;;;;;;25.50;5.00;;;8.20;99.90;;;;;;4999636;28;20042;-60
2023/12/20 02:18:33;;;;;;;31.77;4.80;;;8.20;99.90;;;;;;5003040;28;20502;-60
2023/12/20 02:20:59;;;;;;;30.17;5.38;;;8.20;99.90;;;;;;5003611;28;20116;-60
2023/12/20 02:23:25;;;;;;;43.42;7.82;;;8.20;99.90;;;;;;5002582;28;20077;-60
2023/12/20 02:25:51;;;;;;;24.17;5.20;;;8.20;99.90;;;;;;4986490;28;20123;-63
2023/12/20 02:28:17;;;;;;;29.52;5.97;;;8.20;99.90;;;;;;4982116;28;20125;-60
2023/12/20 02:30:42;;;;;;;31.73;5.50;;;8.20;99.90;;;;;;4986389;28;20088;-60
2023/12/20 02:33:12;;;;;;;25.75;4.45;;;8.20;99.90;;;;;;5004285;28;20034;-61
2023/12/20 02:35:38;;;;;;;28.73;5.43;;;8.30;99.90;;;;;;5009500;28;20038;-60
2023/12/20 02:38:03;;;;;;;31.48;4.70;;;8.20;99.90;;;;;;5007426;28;20100;-60
2023/12/20 02:40:29;;;;;;;26.52;5.30;;;8.30;99.90;;;;;;5007973;28;20042;-60
2023/12/20 02:42:55;;;;;;;25.67;4.50;;;8.30;99.90;;;;;;4993420;28;20103;-60
2023/12/20 02:45:21;;;;;;;25.77;4.90;;;8.30;99.90;;;;;;5008142;28;20050;-61
2023/12/20 02:47:46;;;;;;;31.10;4.95;;;8.30;99.90;;;;;;4999724;28;20054;-60
2023/12/20 02:50:14;;;;;;;28.10;4.63;;;8.30;99.90;;;;;;5006495;28;20045;-60
2023/12/20 02:52:40;;;;;;;29.92;4.63;;;8.30;99.90;;;;;;4988454;28;20710;-60
2023/12/20 02:55:06;;;;;;;32.75;4.78;;;8.20;99.90;;;;;;5009100;28;20057;-60
2023/12/20 02:57:33;;;;;;;31.90;5.22;;;8.30;99.90;;;;;;4991498;28;20063;-60
2023/12/20 03:00:04;;;;;;;25.38;4.95;;;8.20;99.90;;;;;;4970219;28;20059;-60
2023/12/20 03:02:30;;;;;;;33.83;5.43;;;8.20;99.90;;;;;;5000591;28;20034;-60
2023/12/20 03:04:56;;;;;;;26.67;5.07;;;8.30;99.90;;;;;;4973578;28;20051;-60
2023/12/20 03:07:22;;;;;;;29.90;5.45;;;8.30;99.90;;;;;;5019241;28;20056;-60
2023/12/20 03:09:47;;;;;;;31.35;4.88;;;8.20;99.90;;;;;;5003665;28;20564;-60
2023/12/20 03:12:13;;;;;;;29.88;5.63;;;8.20;99.90;;;;;;4988287;28;20191;-60
2023/12/20 03:14:39;;;;;;;28.70;5.63;;;8.20;99.90;;;;;;4987003;28;20064;-60
2023/12/20 03:17:04;;;;;;;28.02;5.18;;;8.20;99.90;;;;;;4982160;28;20045;-60
2023/12/20 03:19:30;;;;;;;33.03;5.07;;;8.20;99.90;;;;;;5008167;28;20041;-60
2023/12/20 03:21:56;;;;;;;25.42;4.85;;;8.20;99.90;;;;;;5001009;28;20382;-60
2023/12/20 03:24:22;;;;;;;24.33;5.30;;;8.30;99.90;;;;;;4985832;28;20045;-60
2023/12/20 03:26:50;;;;;;;30.25;5.40;;;8.30;99.90;;;;;;5005822;28;20041;-60
2023/12/20 03:29:16;;;;;;;24.15;4.72;;;8.30;99.90;;;;;;4969449;28;20045;-60
2023/12/20 03:31:41;;;;;;;23.75;5.00;;;8.30;99.90;;;;;;4986287;28;20458;-60
2023/12/20 03:34:07;;;;;;;22.75;4.22;;;8.30;99.90;;;;;;5003622;28;20050;-60
2023/12/20 03:36:33;;;;;;;27.25;5.18;;;8.40;99.90;;;;;;4999139;28;20046;-60
2023/12/20 03:38:59;;;;;;;28.45;5.18;;;8.40;99.90;;;;;;4997828;28;20145;-60
2023/12/20 03:41:30;;;;;;;26.88;4.72;;;8.40;99.90;;;;;;5002946;28;20041;-60
2023/12/20 03:43:56;;;;;;;28.48;5.22;;;8.40;99.90;;;;;;4988609;28;20085;-60
2023/12/20 03:46:21;;;;;;;21.30;3.72;;;8.40;99.90;;;;;;5001758;28;20077;-61
2023/12/20 03:48:47;;;;;;;27.23;5.25;;;8.40;99.90;;;;;;4985682;28;20081;-60
2023/12/20 03:51:13;;;;;;;25.60;4.25;;;8.50;99.90;;;;;;5007497;28;20489;-60
2023/12/20 03:53:40;;;;;;;23.58;3.95;;;8.40;99.90;;;;;;5011762;28;20044;-61
2023/12/20 03:56:06;;;;;;;28.45;5.38;;;8.50;99.90;;;;;;4985852;28;21670;-60
2023/12/20 03:58:32;;;;;;;27.33;5.45;;;8.50;99.90;;;;;;4992623;28;20081;-61
2023/12/20 04:00:57;;;;;;;23.92;4.53;;;8.50;99.90;;;;;;5004805;28;20498;-60
2023/12/20 04:03:23;;;;;;;30.52;5.70;;;8.50;99.90;;;;;;5003106;28;20042;-60
2023/12/20 04:05:49;;;;;;;27.98;4.53;;;8.50;99.90;;;;;;4987702;28;20487;-61
2023/12/20 04:08:14;;;;;;;21.75;5.68;;;8.50;99.90;;;;;;5003829;28;20109;-61
2023/12/20 04:10:40;;;;;;;23.00;5.32;;;8.50;99.90;;;;;;4989495;28;20046;-60
2023/12/20 04:13:06;;;;;;;28.23;4.93;;;8.50;99.90;;;;;;4989011;28;20045;-60
2023/12/20 04:15:31;;;;;;;25.13;4.40;;;8.50;99.90;;;;;;4985800;28;20507;-60
2023/12/20 04:17:57;;;;;;;32.25;5.25;;;8.50;99.90;;;;;;5003221;28;20096;-60
2023/12/20 04:20:23;;;;;;;27.35;5.82;;;8.50;99.90;;;;;;5001742;28;20046;-60
2023/12/20 04:22:48;;;;;;;39.83;5.80;;;8.50;99.90;;;;;;5002570;28;20364;-61
2023/12/20 04:25:14;;;;;;;26.33;5.03;;;8.50;99.90;;;;;;5002447;28;20049;-61
2023/12/20 04:27:40;;;;;;;31.10;5.07;;;8.50;99.90;;;;;;4987959;28;20437;-60
2023/12/20 04:30:07;;;;;;;26.30;6.00;;;8.50;99.90;;;;;;4987670;28;20042;-61
2023/12/20 04:32:33;;;;;;;37.35;5.88;;;8.50;99.90;;;;;;4987623;28;20045;-60
2023/12/20 04:35:01;;;;;;;28.17;5.25;;;8.60;99.90;;;;;;5003087;28;20463;-60
2023/12/20 04:37:30;;;;;;;28.88;5.60;;;8.50;99.90;;;;;;5003756;28;20050;-60
2023/12/20 04:39:56;;;;;;;31.75;5.25;;;8.50;99.90;;;;;;5003020;28;20038;-60
2023/12/20 04:42:21;;;;;;;29.85;5.00;;;8.50;99.90;;;;;;5000856;28;20038;-60
2023/12/20 04:44:47;;;;;;;29.00;5.93;;;8.50;99.90;;;;;;5003914;28;20052;-60
2023/12/20 04:47:13;;;;;;;30.02;4.90;;;8.50;99.90;;;;;;4988840;28;20125;-60
2023/12/20 04:49:38;;;;;;;29.48;5.93;;;8.60;99.90;;;;;;5006116;28;20049;-61
2023/12/20 04:52:04;;;;;;;27.55;4.53;;;8.60;99.90;;;;;;4984737;28;20100;-60
2023/12/20 04:54:30;;;;;;;26.17;4.95;;;8.70;99.90;;;;;;5004174;28;20411;-60
2023/12/20 04:56:55;;;;;;;36.55;5.28;;;8.70;99.90;;;;;;5000470;28;20042;-61
2023/12/20 04:59:21;;;;;;;32.28;6.50;;;8.70;99.90;;;;;;5003196;28;20811;-60
2023/12/20 05:01:50;;;;;;;28.02;5.22;;;8.60;99.90;;;;;;4986967;28;20064;-61
2023/12/20 05:04:15;;;;;;;28.17;6.00;;;8.60;99.90;;;;;;5001527;28;20046;-61
2023/12/20 05:06:41;;;;;;;34.25;6.93;;;8.60;99.90;;;;;;4980887;28;20045;-60
2023/12/20 05:09:07;;;;;;;23.17;4.80;;;8.60;99.90;;;;;;4985960;28;20044;-60
2023/12/20 05:11:32;;;;;;;29.25;6.07;;;8.60;99.90;;;;;;5001015;28;20701;-60
2023/12/20 05:13:58;;;;;;;32.95;5.47;;;8.70;99.90;;;;;;4999038;28;20061;-60
2023/12/20 05:16:24;;;;;;;31.90;8.05;;;8.70;99.90;;;;;;4982794;28;20050;-61
2023/12/20 05:18:52;;;;;;;27.95;4.97;;;8.70;99.90;;;;;;4992844;28;20038;-61
2023/12/20 05:21:18;;;;;;;26.90;5.22;;;8.70;99.90;;;;;;4990296;28;20042;-60
2023/12/20 05:23:43;;;;;;;27.73;4.60;;;8.70;99.90;;;;;;5000185;28;20052;-60
2023/12/20 05:26:09;;;;;;;32.08;4.95;;;8.70;99.90;;;;;;4998771;28;20046;-60
2023/12/20 05:28:35;;;;;;;29.92;5.90;;;8.80;99.90;;;;;;5000579;28;20045;-60
2023/12/20 05:31:00;;;;;;;31.77;4.88;;;8.70;99.90;;;;;;4996293;28;20156;-60
2023/12/20 05:33:26;;;;;;;26.38;6.40;;;8.80;99.90;;;;;;4998491;28;20048;-61
2023/12/20 05:35:52;;;;;;;30.50;5.85;;;8.80;99.90;;;;;;4998421;28;20076;-61
2023/12/20 05:38:18;;;;;;;25.80;5.45;;;8.80;99.90;;;;;;4986752;28;20112;-60
2023/12/20 05:40:43;;;;;;;27.73;4.97;;;8.80;99.90;;;;;;5003015;28;20053;-60
2023/12/20 05:43:09;;;;;;;29.33;5.00;;;8.80;99.90;;;;;;5001689;28;20039;-60
2023/12/20 05:45:37;;;;;;;30.80;4.85;;;8.80;99.90;;;;;;5002609;28;20054;-60
2023/12/20 05:48:04;;;;;;;21.52;4.97;;;8.80;99.90;;;;;;4998683;28;20108;-60
2023/12/20 05:50:29;;;;;;;27.58;7.07;;;8.80;99.90;;;;;;5007520;28;20033;-60
2023/12/20 05:52:55;;;;;;;31.45;5.18;;;8.90;99.90;;;;;;5002615;28;20438;-61
2023/12/20 05:55:22;;;;;;;33.38;5.53;;;8.90;99.90;;;;;;5001195;28;20042;-60
2023/12/20 05:57:48;;;;;;;31.90;5.15;;;8.90;99.90;;;;;;5004043;28;20252;-60
2023/12/20 06:00:14;;;;;;;31.88;6.45;;;8.90;99.90;;;;;;4993708;28;20042;-60
2023/12/20 06:02:41;;;;;;;33.33;5.63;;;8.90;99.90;;;;;;5001203;28;20038;-60
2023/12/20 06:05:07;;;;;;;24.65;4.50;;;8.90;99.90;;;;;;5003507;28;20529;-60
2023/12/20 06:07:32;;;;;;;28.83;5.22;;;8.90;99.90;;;;;;4984983;28;20210;-60
2023/12/20 06:09:58;;;;;;;24.80;5.40;;;9.00;99.90;;;;;;4997915;28;20859;-60
2023/12/20 06:12:26;;;;;;;29.38;5.68;;;9.00;99.90;;;;;;5000991;28;20120;-60
2023/12/20 06:14:52;;;;;;;28.17;5.28;;;9.00;99.90;;;;;;5000456;28;20046;-60
2023/12/20 06:17:17;;;;;;;23.52;5.85;;;9.00;99.90;;;;;;5005447;28;20045;-60
2023/12/20 06:19:48;;;;;;;38.90;6.28;;;9.00;99.90;;;;;;4999072;28;20485;-60
2023/12/20 06:22:17;;;;;;;25.52;4.90;;;9.00;99.90;;;;;;4986421;28;20311;-61
2023/12/20 06:24:42;;;;;;;31.13;5.13;;;9.00;99.90;;;;;;5009319;28;20080;-60
2023/12/20 06:27:09;;;;;;;30.17;6.30;;;9.00;99.90;;;;;;4985724;28;20049;-61
2023/12/20 06:29:35;;;;;;;26.60;6.20;;;9.00;99.90;;;;;;4980139;28;20469;-60
2023/12/20 06:32:01;;;;;;;23.50;4.85;;;9.00;99.90;;;;;;4996193;28;20144;-60
2023/12/20 06:34:26;;;;;;;22.90;4.80;;;9.00;99.90;;;;;;5006030;28;20038;-60
2023/12/20 06:36:52;;;;;;;29.67;5.10;;;9.00;99.90;;;;;;5000136;28;20441;-60
2023/12/20 06:39:18;;;;;;;29.30;5.40;;;9.00;99.90;;;;;;4982625;28;20053;-60
2023/12/20 06:41:43;;;;;;;37.33;5.28;;;9.00;99.90;;;;;;5000797;28;20046;-60
2023/12/20 06:44:09;;;;;;;31.98;5.15;;;9.00;99.90;;;;;;5014703;28;20462;-60
2023/12/20 06:46:35;;;;;;;24.65;5.57;;;9.00;99.90;;;;;;5002033;28;20045;-60
2023/12/20 06:49:04;;;;;;;34.05;5.53;;;9.00;99.90;;;;;;5006277;28;20077;-61
2023/12/20 06:51:30;;;;;;;34.85;5.68;;;9.00;99.90;;;;;;4989556;28;20462;-61
2023/12/20 06:53:56;;;;;;;30.02;6.38;;;9.00;99.90;;;;;;4991554;28;20124;-60
2023/12/20 06:56:22;;;;;;;27.45;6.05;;;9.00;99.90;;;;;;4996856;28;20034;-60
2023/12/20 06:58:48;;;;;;;28.88;6.38;;;9.00;99.90;;;;;;4998869;28;20084;-60
2023/12/20 07:01:15;;;;;;;23.20;5.22;;;9.00;99.90;;;;;;4986013;28;20449;-61
2023/12/20 07:03:41;;;;;;;32.85;5.95;;;9.00;99.90;;;;;;5006128;28;20242;-58
2023/12/20 07:06:07;;;;;;;32.95;5.63;;;9.00;99.90;;;;;;5003477;28;20069;-60
2023/12/20 07:08:33;;;;;;;31.13;5.13;;;9.00;99.90;;;;;;5001522;28;20070;-61
2023/12/20 07:10:58;;;;;;;40.35;6.05;;;9.10;99.90;;;;;;4996643;28;20503;-59
2023/12/20 07:13:24;;;;;;;39.67;6.80;;;9.00;99.90;;;;;;5000146;28;20037;-59
2023/12/20 07:15:50;;;;;;;29.23;6.15;;;9.00;99.90;;;;;;5002512;28;20040;-60
2023/12/20 07:18:19;;;;;;;26.40;5.72;;;9.00;99.90;;;;;;5005087;28;20042;-60
2023/12/20 07:20:44;;;;;;;34.78;5.40;;;9.00;99.90;;;;;;5005490;28;20049;-59
2023/12/20 07:23:11;;;;;;;26.08;6.05;;;9.10;99.90;;;;;;5005352;28;20038;-59
2023/12/20 07:25:36;;;;;;;21.63;4.72;;;9.00;99.90;;;;;;4985922;28;20132;-60
2023/12/20 07:28:02;;;;;;;25.15;5.55;;;9.00;99.90;;;;;;5004622;28;20132;-60
2023/12/20 07:30:34;;;;;;;26.67;5.25;;;9.00;99.90;;;;;;5006184;28;20406;-60
2023/12/20 07:33:00;;;;;;;23.85;4.65;;;8.90;99.90;;;;;;5006221;28;20050;-60
2023/12/20 07:35:26;;;;;;;26.40;5.10;;;8.90;99.90;;;;;;5004353;28;20116;-60
2023/12/20 07:37:52;;;;;;;25.38;4.80;;;8.90;99.90;;;;;;4989059;28;20073;-60
2023/12/20 07:40:17;;;;;;;25.75;5.25;;;8.90;99.90;;;;;;5004434;28;20037;-60
2023/12/20 07:42:46;;;;;;;28.60;5.47;;;8.90;99.90;;;;;;5006528;28;20057;-60
2023/12/20 07:45:12;;;;;;;27.77;4.93;;;9.00;99.90;;;;;;5004211;28;20053;-60
2023/12/20 07:47:41;;;;;;;26.15;5.85;;;9.00;99.90;;;;;;5001404;28;20049;-60
2023/12/20 07:50:07;;;;;;;25.42;5.55;;;9.00;99.90;;;;;;4986923;28;20046;-60
2023/12/20 07:52:32;;;;;;;27.60;6.03;;;9.10;99.90;;;;;;5006600;28;20053;-60
2023/12/20 07:54:58;;;;;;;33.30;5.63;;;9.10;99.90;;;;;;5001038;28;20741;-60
2023/12/20 07:57:29;;;;;;;27.15;5.68;;;9.10;99.90;;;;;;5000787;28;20038;-60
2023/12/20 07:59:55;;;;;;;23.88;5.57;;;9.10;99.90;;;;;;4985477;28;20070;-61
2023/12/20 08:02:21;;;;;;;31.33;6.80;;;9.10;99.90;;;;;;5002758;28;20115;-61
2023/12/20 08:04:46;;;;;;;29.13;6.68;;;9.10;99.90;;;;;;5003343;28;21167;-60
2023/12/20 08:07:12;;;;;;;21.75;3.33;;;9.10;99.90;;;;;;5007889;28;20046;-61
2023/12/20 08:09:38;;;;;;;14.73;3.72;;;9.00;99.90;;;;;;5005627;28;20046;-60
2023/12/20 08:12:04;;;;;;;11.25;2.47;;;8.90;99.90;;;;;;5004223;28;20485;-59
2023/12/20 08:14:29;;;;;;;17.10;3.75;;;8.90;99.90;;;;;;5000439;28;20457;-60
2023/12/20 08:16:55;;;;;;;15.65;2.80;;;8.80;99.90;;;;;;4988058;28;20041;-60
2023/12/20 08:19:21;;;;;;;17.77;3.35;;;8.80;99.90;;;;;;5002443;28;20072;-60
2023/12/20 08:21:47;;;;;;;24.23;3.85;;;8.80;99.90;;;;;;5002251;28;20415;-60
2023/12/20 08:24:12;;;;;;;16.65;3.40;;;8.80;99.90;;;;;;4988594;28;20049;-61
2023/12/20 08:26:38;;;;;;;18.90;4.13;;;8.70;99.90;;;;;;5001312;28;20431;-60
2023/12/20 08:29:04;;;;;;;25.25;5.57;;;8.80;99.90;;;;;;5006800;28;20042;-60
2023/12/20 08:31:29;;;;;;;23.20;5.15;;;8.80;99.90;;;;;;5005416;28;20145;-61
2023/12/20 08:33:55;;;;;;;27.38;5.32;;;8.90;99.90;;;;;;5012097;28;20431;-60
2023/12/20 08:36:23;;;;;;;27.98;4.85;;;9.00;99.90;;;;;;5003945;28;20053;-61
2023/12/20 08:38:49;;;;;;;34.92;5.53;;;9.00;99.90;;;;;;5004515;28;20486;-60
2023/12/20 08:41:15;;;;;;;31.80;6.05;;;9.00;99.90;;;;;;4986190;28;20045;-60
2023/12/20 08:43:41;;;;;;;26.83;5.28;;;9.00;99.90;;;;;;4975303;28;20056;-61
2023/12/20 08:46:09;;;;;;;32.13;5.90;;;9.00;99.90;;;;;;4969509;28;20038;-61
2023/12/20 08:48:35;;;;;;;23.10;5.15;;;9.10;99.90;;;;;;4998426;28;20414;-60
2023/12/20 08:51:01;;;;;;;29.25;6.70;;;9.10;99.90;;;;;;5003970;28;20056;-60
2023/12/20 08:53:27;;;;;;;27.35;5.65;;;9.10;99.90;;;;;;5001648;28;20181;-60
2023/12/20 08:55:52;;;;;;;32.40;6.28;;;9.10;99.90;;;;;;4975834;28;20041;-60
2023/12/20 08:58:18;;;;;;;21.42;4.85;;;9.10;99.90;;;;;;5002697;28;20029;-60
2023/12/20 09:00:44;;;;;;;16.08;3.35;;;9.20;99.90;;;;;;4984073;28;20394;-60
2023/12/20 09:03:10;;;;;;;12.35;2.15;;;8.90;99.90;;;;;;5000412;28;20034;-60
2023/12/20 09:05:36;;;;;;;12.98;2.83;;;8.40;99.90;;;;;;5000669;28;20107;-60
2023/12/20 09:08:02;;;;;;;9.18;1.85;;;8.20;99.90;;;;;;5000445;28;20075;-59
2023/12/20 09:10:28;;;;;;;8.02;1.98;;;7.90;99.90;;;;;;5002196;28;20176;-60
2023/12/20 09:12:56;;;;;;;9.93;1.80;;;7.70;99.90;;;;;;5007413;28;20576;-60
2023/12/20 09:15:24;;;;;;;8.85;1.83;;;7.70;99.90;;;;;;4996707;28;20123;-60
2023/12/20 09:17:49;;;;;;;13.20;2.65;;;7.60;99.90;;;;;;5004501;28;20037;-60
2023/12/20 09:20:15;;;;;;;16.35;6.38;;;7.70;99.90;;;;;;4969330;28;20026;-60
2023/12/20 09:22:41;;;;;;;14.50;2.72;;;7.60;99.90;;;;;;5001850;28;20042;-60
2023/12/20 09:25:08;;;;;;;8.27;2.92;;;7.70;99.90;;;;;;4990413;28;20376;-60
2023/12/20 09:27:33;;;;;;;10.63;2.63;;;7.50;99.90;;;;;;4988929;28;20540;-60
2023/12/20 09:29:59;;;;;;;11.43;2.22;;;7.60;99.90;;;;;;4990450;28;20071;-60
2023/12/20 09:32:25;;;;;;;11.50;3.08;;;7.70;99.90;;;;;;4998308;28;20536;-60
2023/12/20 09:34:51;;;;;;;7.65;2.05;;;7.50;99.90;;;;;;4996777;28;20042;-60
2023/12/20 09:37:17;;;;;;;13.90;3.63;;;7.60;99.90;;;;;;4984941;28;20034;-60
2023/12/20 09:39:42;;;;;;;16.90;3.42;;;7.50;99.90;;;;;;4983066;28;20196;-60
2023/12/20 09:42:28;;;;;;;16.20;4.03;;;7.50;99.90;;;;;;5001438;28;20163;-60
2023/12/20 09:44:54;;;;;;;13.93;4.00;;;7.50;99.90;;;;;;4984066;28;20689;-60
2023/12/20 09:47:23;;;;;;;18.52;2.80;;;7.60;99.90;;;;;;4979811;28;20061;-60
2023/12/20 09:49:50;;;;;;;13.18;3.05;;;7.60;99.90;;;;;;4978164;28;20503;-60
2023/12/20 09:52:20;;;;;;;15.32;2.95;;;7.60;99.90;;;;;;4970205;28;20042;-60
2023/12/20 09:54:49;;;;;;;15.00;3.33;;;7.60;99.90;;;;;;5002685;28;20058;-60
2023/12/20 09:57:15;;;;;;;13.98;3.20;;;7.60;99.90;;;;;;5003758;28;20069;-60
2023/12/20 09:59:41;;;;;;;20.27;3.13;;;7.60;99.90;;;;;;4982622;28;21026;-60
2023/12/20 10:02:12;;;;;;;21.00;6.22;;;7.60;99.90;;;;;;4984529;28;20533;-60
2023/12/20 10:04:46;;;;;;;13.93;3.90;;;7.70;99.90;;;;;;4996904;28;20494;-60
2023/12/20 10:07:11;;;;;;;13.43;4.00;;;7.70;99.90;;;;;;4994872;28;20049;-60
2023/12/20 10:09:38;;;;;;;18.45;3.65;;;7.60;99.90;;;;;;5002112;28;20419;-60
2023/12/20 10:12:05;;;;;;;11.25;2.90;;;7.70;99.90;;;;;;5003489;28;20049;-60
2023/12/20 10:14:32;;;;;;;17.98;4.18;;;7.70;99.90;;;;;;4986632;28;20418;-60
2023/12/20 10:17:07;;;;;;;11.45;3.17;;;7.80;99.90;;;;;;5001609;28;20281;-60
2023/12/20 10:19:37;;;;;;;9.23;2.22;;;7.80;99.90;;;;;;4997715;28;20045;-60
2023/12/20 10:22:05;;;;;;;15.80;2.75;;;7.90;99.90;;;;;;4982923;28;20100;-60
2023/12/20 10:24:31;;;;;;;18.40;3.58;;;8.00;99.90;;;;;;4986110;28;20511;-60
2023/12/20 10:27:04;;;;;;;11.77;3.05;;;8.00;99.90;;;;;;5002315;28;20041;-60
2023/12/20 10:29:37;;;;;;;14.68;2.42;;;8.10;99.90;;;;;;4968823;28;20049;-60
2023/12/20 10:32:26;;;;;;;15.80;2.70;;;8.10;99.90;;;;;;5001678;28;20050;-61
2023/12/20 10:34:53;;;;;;;11.63;2.25;;;8.10;99.90;;;;;;4986611;28;20045;-60
2023/12/20 10:37:18;;;;;;;15.23;2.83;;;8.20;99.90;;;;;;4981161;28;20092;-60
2023/12/20 10:39:51;;;;;;;10.98;2.30;;;8.20;99.90;;;;;;5000437;28;20046;-60
2023/12/20 10:42:20;;;;;;;18.33;3.08;;;8.20;99.90;;;;;;4999132;28;20038;-60
2023/12/20 10:44:47;;;;;;;12.13;3.30;;;8.20;99.90;;;;;;4981908;28;20561;-60
2023/12/20 10:47:13;;;;;;;16.13;3.30;;;8.30;99.90;;;;;;5005481;28;20129;-60
2023/12/20 10:49:40;;;;;;;18.05;4.53;;;8.30;99.90;;;;;;4983712;28;20054;-61
2023/12/20 10:52:06;;;;;;;18.98;4.47;;;8.30;99.90;;;;;;5004511;28;20038;-60
2023/12/20 10:54:32;;;;;;;10.32;2.63;;;8.30;99.90;;;;;;4997135;28;20038;-60
2023/12/20 10:56:59;;;;;;;14.93;2.95;;;8.30;99.90;;;;;;4972712;28;20038;-60
2023/12/20 10:59:35;;;;;;;15.48;4.20;;;8.40;99.90;;;;;;5002330;28;20034;-61
2023/12/20 11:02:05;;;;;;;27.30;6.75;;;8.40;99.90;;;;;;4987774;28;20093;-60
2023/12/20 11:04:55;;;;;;;25.67;5.38;;;8.50;99.90;;;;;;5003507;28;20042;-60
2023/12/20 11:07:33;;;;;;;23.63;8.90;;;8.50;99.90;;;;;;5000408;28;20045;-60
2023/12/20 11:10:13;;;;;;;20.88;6.38;;;8.50;99.90;;;;;;4986719;28;20046;-60
2023/12/20 11:13:16;;;;;;;16.30;3.78;;;8.50;99.90;;;;;;5004945;28;20091;-61
2023/12/20 11:15:42;;;;;;;13.48;3.55;;;8.60;99.90;;;;;;4990350;28;20042;-60
2023/12/20 11:18:09;;;;;;;14.27;3.40;;;8.60;99.90;;;;;;4989509;28;20073;-60
2023/12/20 11:20:41;;;;;;;25.83;8.18;;;8.70;99.90;;;;;;5004168;28;20133;-60
2023/12/20 11:23:14;;;;;;;17.27;3.70;;;8.80;99.90;;;;;;4994861;28;20092;-60
2023/12/20 11:25:53;;;;;;;24.02;7.53;;;8.80;99.90;;;;;;5001565;28;20592;-61
2023/12/20 11:28:24;;;;;;;16.85;4.70;;;8.80;99.90;;;;;;4981648;28;20593;-61
2023/12/20 11:31:03;;;;;;;17.02;4.97;;;8.90;99.90;;;;;;4996117;28;20056;-60
2023/12/20 11:33:39;;;;;;;12.20;3.00;;;8.90;99.90;;;;;;5005314;28;20061;-62
2023/12/20 11:36:14;;;;;;;15.50;3.47;;;8.90;99.90;;;;;;4990205;28;20406;-61
2023/12/20 11:38:56;;;;;;;16.30;3.10;;;8.90;99.90;;;;;;5003989;28;20839;-60
2023/12/20 11:41:26;;;;;;;20.60;5.78;;;8.90;99.90;;;;;;5000282;28;20030;-60
2023/12/20 11:43:56;;;;;;;14.73;3.15;;;8.90;99.90;;;;;;4997506;28;20046;-60
2023/12/20 11:46:22;;;;;;;15.27;4.32;;;8.90;99.90;;;;;;4985881;28;20046;-60
2023/12/20 11:48:48;;;;;;;15.27;3.60;;;8.90;99.90;;;;;;4983286;28;20046;-60
2023/12/20 11:51:14;;;;;;;18.80;3.97;;;8.90;99.90;;;;;;4986066;28;20042;-60
2023/12/20 11:53:42;;;;;;;17.23;4.53;;;8.90;99.90;;;;;;4987205;28;20041;-61
2023/12/20 11:56:08;;;;;;;18.63;3.78;;;8.90;99.90;;;;;;5005578;28;20138;-61
2023/12/20 11:58:34;;;;;;;15.10;4.03;;;8.90;99.90;;;;;;5000365;28;20037;-61
2023/12/20 12:01:02;;;;;;;16.10;2.47;;;8.90;99.90;;;;;;4999122;28;20068;-60
2023/12/20 12:03:28;;;;;;;14.95;3.15;;;8.90;99.90;;;;;;5002441;28;20578;-61
2023/12/20 12:05:53;;;;;;;12.75;4.22;;;8.90;99.90;;;;;;5003434;28;20057;-61
2023/12/20 12:08:19;;;;;;;13.45;2.17;;;8.90;99.90;;;;;;4998986;28;20038;-60
2023/12/20 12:10:45;;;;;;;13.73;2.55;;;9.00;99.90;;;;;;4968122;28;20491;-60
2023/12/20 12:13:14;;;;;;;17.70;3.10;;;8.90;99.90;;;;;;5004909;28;20447;-60
2023/12/20 12:15:42;;;;;;;14.02;2.85;;;8.90;99.90;;;;;;4988344;28;20521;-61
2023/12/20 12:18:29;;;;;;;19.25;2.63;;;8.90;99.90;;;;;;4999774;28;20763;-61
2023/12/20 12:21:01;;;;;;;16.25;3.00;;;8.90;99.90;;;;;;4999197;28;20052;-60
2023/12/20 12:23:27;;;;;;;17.57;2.90;;;8.90;99.90;;;;;;5003006;28;20550;-61
2023/12/20 12:25:55;;;;;;;18.63;3.50;;;8.90;99.90;;;;;;5001014;28;20431;-61
2023/12/20 12:28:20;;;;;;;22.20;3.10;;;8.90;99.90;;;;;;5013237;28;20050;-60
2023/12/20 12:30:59;;;;;;;11.32;2.60;;;8.90;99.90;;;;;;5002180;28;20052;-61
2023/12/20 12:33:26;;;;;;;21.75;3.35;;;8.90;99.90;;;;;;4997690;28;20058;-61
2023/12/20 12:35:52;;;;;;;14.50;3.28;;;8.80;99.90;;;;;;4984997;28;20299;-60
2023/12/20 12:38:21;;;;;;;16.48;3.65;;;8.80;99.90;;;;;;5001706;28;20297;-60
2023/12/20 12:40:47;;;;;;;20.23;3.63;;;8.80;99.90;;;;;;4993219;28;20038;-60
2023/12/20 12:43:13;;;;;;;19.10;2.67;;;8.70;99.90;;;;;;4987406;28;20049;-60
2023/12/20 12:45:38;;;;;;;15.45;3.25;;;8.70;99.90;;;;;;5000787;28;20053;-60
2023/12/20 12:48:05;;;;;;;9.38;2.20;;;8.60;99.90;;;;;;5000319;28;20057;-60